sensor_id;sensor_type;location;lat;lon;timestamp;pressure;altitude;pressure_sealevel;temperature;humidity
41202;BME280;26936;50.524;8.684;2023-02-16T00:01:51;100458.75;;;1.57;100.00
41202;BME280;26936;50.524;8.684;2023-02-16T00:06:48;100460.59;;;1.50;100.00
41202;BME280;26936;50.524;8.684;2023-02-16T00:09:13;100452.69;;;1.52;100.00
41202;BME280;26936;50.524;8.684;2023-02-16T00:11:39;100464.97;;;1.51;100.00
41202;BME280;26936;50.524;8.684;2023-02-16T00:14:24;100450.38;;;1.34;100.00
41202;BME280;26936;50.524;8.684;2023-02-16T00:16:51;100454.31;;;1.33;100.00
41202;BME280;26936;50.524;8.684;2023-02-16T00:21:50;100461.53;;;1.38;100.00
41202;BME280;26936;50.524;8.684;2023-02-16T00:24:16;100459.44;;;1.31;100.00
41202;BME280;26936;50.524;8.684;2023-02-16T00:26:42;100451.97;;;1.35;100.00
41202;BME280;26936;50.524;8.684;2023-02-16T00:29:13;100451.38;;;1.26;100.00
41202;BME280;26936;50.524;8.684;2023-02-16T00:31:39;100450.72;;;1.33;100.00
41202;BME280;26936;50.524;8.684;2023-02-16T00:36:52;100450.28;;;1.31;100.00
41202;BME280;26936;50.524;8.684;2023-02-16T00:39:17;100442.03;;;1.34;100.00
41202;BME280;26936;50.524;8.684;2023-02-16T00:41:43;100443.78;;;1.23;100.00
41202;BME280;26936;50.524;8.684;2023-02-16T00:44:17;100449.63;;;1.18;100.00
41202;BME280;26936;50.524;8.684;2023-02-16T00:46:44;100455.09;;;1.15;100.00
41202;BME280;26936;50.524;8.684;2023-02-16T00:49:18;100456.19;;;1.29;100.00
41202;BME280;26936;50.524;8.684;2023-02-16T00:51:44;100453.50;;;1.33;100.00
41202;BME280;26936;50.524;8.684;2023-02-16T00:54:10;100464.03;;;1.24;100.00
41202;BME280;26936;50.524;8.684;2023-02-16T00:56:36;100460.44;;;1.23;100.00
41202;BME280;26936;50.524;8.684;2023-02-16T00:59:02;100453.34;;;1.26;100.00
41202;BME280;26936;50.524;8.684;2023-02-16T01:01:31;100445.84;;;1.26;100.00
41202;BME280;26936;50.524;8.684;2023-02-16T01:04:02;100445.19;;;1.33;100.00
41202;BME280;26936;50.524;8.684;2023-02-16T01:06:29;100450.50;;;1.22;100.00
41202;BME280;26936;50.524;8.684;2023-02-16T01:09:15;100444.81;;;1.15;100.00
41202;BME280;26936;50.524;8.684;2023-02-16T01:12:01;100442.97;;;1.23;100.00
41202;BME280;26936;50.524;8.684;2023-02-16T01:14:28;100439.34;;;1.19;100.00
41202;BME280;26936;50.524;8.684;2023-02-16T01:16:54;100432.59;;;1.39;100.00
41202;BME280;26936;50.524;8.684;2023-02-16T01:19:19;100435.38;;;1.39;100.00
41202;BME280;26936;50.524;8.684;2023-02-16T01:21:45;100431.50;;;1.24;100.00
41202;BME280;26936;50.524;8.684;2023-02-16T01:24:10;100442.41;;;1.33;100.00
41202;BME280;26936;50.524;8.684;2023-02-16T01:26:38;100443.44;;;1.25;100.00
41202;BME280;26936;50.524;8.684;2023-02-16T01:29:05;100447.00;;;1.25;100.00
41202;BME280;26936;50.524;8.684;2023-02-16T01:31:30;100433.91;;;1.26;100.00
41202;BME280;26936;50.524;8.684;2023-02-16T01:33:55;100437.59;;;1.30;100.00
41202;BME280;26936;50.524;8.684;2023-02-16T01:36:30;100426.56;;;1.33;100.00
41202;BME280;26936;50.524;8.684;2023-02-16T01:38:57;100423.97;;;1.44;100.00
41202;BME280;26936;50.524;8.684;2023-02-16T01:41:28;100419.69;;;1.47;100.00
41202;BME280;26936;50.524;8.684;2023-02-16T01:44:04;100424.78;;;1.45;100.00
41202;BME280;26936;50.524;8.684;2023-02-16T01:46:51;100423.63;;;1.26;100.00
41202;BME280;26936;50.524;8.684;2023-02-16T01:49:20;100420.72;;;1.38;100.00
41202;BME280;26936;50.524;8.684;2023-02-16T01:52:06;100425.16;;;1.43;100.00
41202;BME280;26936;50.524;8.684;2023-02-16T01:54:45;100422.97;;;1.33;100.00
41202;BME280;26936;50.524;8.684;2023-02-16T01:57:31;100423.72;;;1.30;100.00
41202;BME280;26936;50.524;8.684;2023-02-16T02:00:06;100420.44;;;1.44;100.00
41202;BME280;26936;50.524;8.684;2023-02-16T02:02:35;100415.66;;;1.44;100.00
41202;BME280;26936;50.524;8.684;2023-02-16T02:05:23;100408.94;;;1.26;100.00
41202;BME280;26936;50.524;8.684;2023-02-16T02:13:50;100411.78;;;1.29;100.00
41202;BME280;26936;50.524;8.684;2023-02-16T02:16:19;100402.63;;;1.25;100.00
41202;BME280;26936;50.524;8.684;2023-02-16T02:18:45;100401.78;;;1.44;100.00
41202;BME280;26936;50.524;8.684;2023-02-16T02:25:01;100380.78;;;1.24;100.00
41202;BME280;26936;50.524;8.684;2023-02-16T02:28:04;100385.16;;;1.25;100.00
41202;BME280;26936;50.524;8.684;2023-02-16T02:30:48;100374.06;;;1.25;100.00
41202;BME280;26936;50.524;8.684;2023-02-16T02:33:36;100377.03;;;1.35;100.00
41202;BME280;26936;50.524;8.684;2023-02-16T02:36:41;100374.50;;;1.27;100.00
41202;BME280;26936;50.524;8.684;2023-02-16T02:39:28;100358.69;;;1.31;100.00
41202;BME280;26936;50.524;8.684;2023-02-16T02:42:03;100372.34;;;1.39;100.00
41202;BME280;26936;50.524;8.684;2023-02-16T02:44:56;100382.81;;;1.27;100.00
41202;BME280;26936;50.524;8.684;2023-02-16T02:47:37;100372.47;;;1.24;100.00
41202;BME280;26936;50.524;8.684;2023-02-16T02:50:02;100369.16;;;1.18;100.00
41202;BME280;26936;50.524;8.684;2023-02-16T02:52:27;100363.91;;;1.13;100.00
41202;BME280;26936;50.524;8.684;2023-02-16T02:54:53;100369.38;;;1.10;100.00
41202;BME280;26936;50.524;8.684;2023-02-16T02:57:45;100373.25;;;1.05;100.00
41202;BME280;26936;50.524;8.684;2023-02-16T03:00:36;100383.56;;;1.05;100.00
41202;BME280;26936;50.524;8.684;2023-02-16T03:05:52;100388.97;;;1.17;100.00
41202;BME280;26936;50.524;8.684;2023-02-16T03:08:23;100385.22;;;1.28;100.00
41202;BME280;26936;50.524;8.684;2023-02-16T03:11:01;100385.06;;;1.21;100.00
41202;BME280;26936;50.524;8.684;2023-02-16T03:13:51;100372.38;;;1.20;100.00
41202;BME280;26936;50.524;8.684;2023-02-16T03:16:24;100376.47;;;1.26;100.00
41202;BME280;26936;50.524;8.684;2023-02-16T03:18:51;100375.25;;;1.24;100.00
41202;BME280;26936;50.524;8.684;2023-02-16T03:21:35;100380.34;;;1.22;100.00
41202;BME280;26936;50.524;8.684;2023-02-16T03:24:26;100376.91;;;1.28;100.00
41202;BME280;26936;50.524;8.684;2023-02-16T03:27:12;100367.69;;;1.24;100.00
41202;BME280;26936;50.524;8.684;2023-02-16T03:29:57;100373.03;;;1.33;100.00
41202;BME280;26936;50.524;8.684;2023-02-16T03:32:25;100372.09;;;1.25;100.00
41202;BME280;26936;50.524;8.684;2023-02-16T03:34:51;100377.50;;;1.18;100.00
41202;BME280;26936;50.524;8.684;2023-02-16T03:37:16;100380.19;;;1.15;100.00
41202;BME280;26936;50.524;8.684;2023-02-16T03:39:41;100380.94;;;1.12;100.00
41202;BME280;26936;50.524;8.684;2023-02-16T03:42:26;100364.84;;;1.21;100.00
41202;BME280;26936;50.524;8.684;2023-02-16T03:44:51;100363.25;;;1.20;100.00
41202;BME280;26936;50.524;8.684;2023-02-16T03:47:16;100364.56;;;1.26;100.00
41202;BME280;26936;50.524;8.684;2023-02-16T03:49:41;100369.75;;;1.08;100.00
41202;BME280;26936;50.524;8.684;2023-02-16T03:52:07;100362.03;;;1.17;100.00
41202;BME280;26936;50.524;8.684;2023-02-16T03:54:32;100376.56;;;1.11;100.00
41202;BME280;26936;50.524;8.684;2023-02-16T03:56:58;100371.50;;;1.16;100.00
41202;BME280;26936;50.524;8.684;2023-02-16T03:59:23;100384.00;;;1.07;100.00
41202;BME280;26936;50.524;8.684;2023-02-16T04:01:48;100376.56;;;1.11;100.00
41202;BME280;26936;50.524;8.684;2023-02-16T04:04:13;100389.09;;;1.05;100.00
41202;BME280;26936;50.524;8.684;2023-02-16T04:06:39;100383.63;;;1.08;100.00
41202;BME280;26936;50.524;8.684;2023-02-16T04:09:04;100370.13;;;1.07;100.00
41202;BME280;26936;50.524;8.684;2023-02-16T04:11:30;100371.34;;;1.09;100.00
41202;BME280;26936;50.524;8.684;2023-02-16T04:14:14;100370.34;;;1.17;100.00
41202;BME280;26936;50.524;8.684;2023-02-16T04:16:39;100369.91;;;1.15;100.00
41202;BME280;26936;50.524;8.684;2023-02-16T04:19:04;100368.88;;;1.23;100.00
41202;BME280;26936;50.524;8.684;2023-02-16T04:21:31;100372.75;;;1.19;100.00
41202;BME280;26936;50.524;8.684;2023-02-16T04:23:56;100374.13;;;1.09;100.00
41202;BME280;26936;50.524;8.684;2023-02-16T04:26:22;100379.66;;;1.09;100.00
41202;BME280;26936;50.524;8.684;2023-02-16T04:28:47;100387.84;;;1.21;100.00
41202;BME280;26936;50.524;8.684;2023-02-16T04:31:12;100390.44;;;1.11;100.00
41202;BME280;26936;50.524;8.684;2023-02-16T04:33:38;100385.66;;;1.11;100.00
41202;BME280;26936;50.524;8.684;2023-02-16T04:36:03;100391.72;;;1.17;100.00
41202;BME280;26936;50.524;8.684;2023-02-16T04:38:28;100382.53;;;1.13;100.00
41202;BME280;26936;50.524;8.684;2023-02-16T04:40:54;100384.06;;;1.10;100.00
41202;BME280;26936;50.524;8.684;2023-02-16T04:43:19;100388.97;;;1.17;100.00
41202;BME280;26936;50.524;8.684;2023-02-16T04:45:44;100390.19;;;1.19;100.00
41202;BME280;26936;50.524;8.684;2023-02-16T04:48:10;100387.28;;;1.12;100.00
41202;BME280;26936;50.524;8.684;2023-02-16T04:50:35;100390.28;;;1.04;100.00
41202;BME280;26936;50.524;8.684;2023-02-16T04:53:00;100381.59;;;1.05;100.00
41202;BME280;26936;50.524;8.684;2023-02-16T04:55:26;100374.50;;;1.08;100.00
41202;BME280;26936;50.524;8.684;2023-02-16T04:57:51;100367.72;;;1.05;100.00
41202;BME280;26936;50.524;8.684;2023-02-16T05:00:16;100371.78;;;1.11;100.00
41202;BME280;26936;50.524;8.684;2023-02-16T05:02:42;100372.53;;;1.08;100.00
41202;BME280;26936;50.524;8.684;2023-02-16T05:05:07;100372.44;;;1.05;100.00
41202;BME280;26936;50.524;8.684;2023-02-16T05:07:32;100361.34;;;1.05;100.00
41202;BME280;26936;50.524;8.684;2023-02-16T05:09:58;100372.00;;;1.03;100.00
41202;BME280;26936;50.524;8.684;2023-02-16T05:12:23;100376.25;;;0.97;100.00
41202;BME280;26936;50.524;8.684;2023-02-16T05:15:07;100380.19;;;0.96;100.00
41202;BME280;26936;50.524;8.684;2023-02-16T05:17:32;100385.84;;;0.99;100.00
41202;BME280;26936;50.524;8.684;2023-02-16T05:19:59;100393.69;;;0.97;100.00
41202;BME280;26936;50.524;8.684;2023-02-16T05:22:25;100389.66;;;0.95;100.00
41202;BME280;26936;50.524;8.684;2023-02-16T05:24:50;100381.06;;;1.00;100.00
41202;BME280;26936;50.524;8.684;2023-02-16T05:27:21;100379.19;;;1.04;100.00
41202;BME280;26936;50.524;8.684;2023-02-16T05:29:47;100373.84;;;0.95;100.00
41202;BME280;26936;50.524;8.684;2023-02-16T05:32:12;100380.19;;;0.96;100.00
41202;BME280;26936;50.524;8.684;2023-02-16T05:34:38;100379.22;;;0.88;100.00
41202;BME280;26936;50.524;8.684;2023-02-16T05:37:04;100372.63;;;0.93;100.00
41202;BME280;26936;50.524;8.684;2023-02-16T05:39:29;100379.59;;;0.87;100.00
41202;BME280;26936;50.524;8.684;2023-02-16T05:41:55;100370.50;;;0.86;100.00
41202;BME280;26936;50.524;8.684;2023-02-16T05:44:20;100379.53;;;1.02;100.00
41202;BME280;26936;50.524;8.684;2023-02-16T05:46:45;100383.19;;;0.87;100.00
41202;BME280;26936;50.524;8.684;2023-02-16T05:49:12;100374.94;;;0.91;100.00
41202;BME280;26936;50.524;8.684;2023-02-16T05:51:37;100387.13;;;0.86;100.00
41202;BME280;26936;50.524;8.684;2023-02-16T05:54:03;100392.25;;;0.84;100.00
41202;BME280;26936;50.524;8.684;2023-02-16T05:56:29;100389.63;;;0.91;100.00
41202;BME280;26936;50.524;8.684;2023-02-16T05:58:54;100398.22;;;0.86;100.00
41202;BME280;26936;50.524;8.684;2023-02-16T06:01:20;100399.00;;;0.87;100.00
41202;BME280;26936;50.524;8.684;2023-02-16T06:03:46;100407.03;;;0.92;100.00
41202;BME280;26936;50.524;8.684;2023-02-16T06:06:11;100406.47;;;0.83;100.00
41202;BME280;26936;50.524;8.684;2023-02-16T06:08:37;100405.94;;;0.77;100.00
41202;BME280;26936;50.524;8.684;2023-02-16T06:11:03;100410.63;;;0.92;100.00
41202;BME280;26936;50.524;8.684;2023-02-16T06:13:31;100410.72;;;0.96;100.00
41202;BME280;26936;50.524;8.684;2023-02-16T06:15:57;100410.56;;;0.89;100.00
41202;BME280;26936;50.524;8.684;2023-02-16T06:18:23;100428.66;;;0.83;100.00
41202;BME280;26936;50.524;8.684;2023-02-16T06:20:48;100418.34;;;0.83;100.00
41202;BME280;26936;50.524;8.684;2023-02-16T06:23:15;100417.00;;;0.93;100.00
41202;BME280;26936;50.524;8.684;2023-02-16T06:25:42;100413.13;;;0.97;100.00
41202;BME280;26936;50.524;8.684;2023-02-16T06:28:07;100424.22;;;0.97;100.00
41202;BME280;26936;50.524;8.684;2023-02-16T06:30:33;100423.25;;;0.90;100.00
41202;BME280;26936;50.524;8.684;2023-02-16T06:32:59;100413.50;;;0.96;100.00
41202;BME280;26936;50.524;8.684;2023-02-16T06:35:25;100415.00;;;0.93;100.00
41202;BME280;26936;50.524;8.684;2023-02-16T06:37:50;100412.75;;;0.99;100.00
41202;BME280;26936;50.524;8.684;2023-02-16T06:40:15;100413.19;;;1.01;100.00
41202;BME280;26936;50.524;8.684;2023-02-16T06:42:41;100406.03;;;1.00;100.00
41202;BME280;26936;50.524;8.684;2023-02-16T06:45:08;100406.31;;;0.95;100.00
41202;BME280;26936;50.524;8.684;2023-02-16T06:47:35;100407.78;;;1.08;100.00
41202;BME280;26936;50.524;8.684;2023-02-16T06:50:00;100412.84;;;1.02;100.00
41202;BME280;26936;50.524;8.684;2023-02-16T06:52:26;100409.47;;;0.93;100.00
41202;BME280;26936;50.524;8.684;2023-02-16T06:54:51;100412.91;;;1.06;100.00
41202;BME280;26936;50.524;8.684;2023-02-16T06:57:17;100420.59;;;1.12;100.00
41202;BME280;26936;50.524;8.684;2023-02-16T06:59:42;100425.81;;;0.98;100.00
41202;BME280;26936;50.524;8.684;2023-02-16T07:02:08;100420.13;;;1.10;100.00
41202;BME280;26936;50.524;8.684;2023-02-16T07:04:34;100428.53;;;1.14;100.00
41202;BME280;26936;50.524;8.684;2023-02-16T07:06:59;100420.25;;;0.98;100.00
41202;BME280;26936;50.524;8.684;2023-02-16T07:09:24;100416.06;;;1.04;100.00
41202;BME280;26936;50.524;8.684;2023-02-16T07:11:49;100428.47;;;1.10;100.00
41202;BME280;26936;50.524;8.684;2023-02-16T07:14:15;100421.94;;;1.03;100.00
41202;BME280;26936;50.524;8.684;2023-02-16T07:16:41;100419.97;;;1.22;100.00
41202;BME280;26936;50.524;8.684;2023-02-16T07:19:06;100417.19;;;1.22;100.00
41202;BME280;26936;50.524;8.684;2023-02-16T07:21:31;100407.41;;;1.09;100.00
41202;BME280;26936;50.524;8.684;2023-02-16T07:23:57;100416.47;;;1.06;100.00
41202;BME280;26936;50.524;8.684;2023-02-16T07:26:22;100413.63;;;1.03;100.00
41202;BME280;26936;50.524;8.684;2023-02-16T07:28:47;100417.84;;;1.16;100.00
41202;BME280;26936;50.524;8.684;2023-02-16T07:31:14;100411.56;;;1.00;100.00
41202;BME280;26936;50.524;8.684;2023-02-16T07:33:40;100415.59;;;1.02;100.00
41202;BME280;26936;50.524;8.684;2023-02-16T07:36:06;100425.53;;;1.03;100.00
41202;BME280;26936;50.524;8.684;2023-02-16T07:38:32;100425.88;;;1.02;100.00
41202;BME280;26936;50.524;8.684;2023-02-16T07:40:58;100424.78;;;1.06;100.00
41202;BME280;26936;50.524;8.684;2023-02-16T07:43:24;100424.28;;;1.01;100.00
41202;BME280;26936;50.524;8.684;2023-02-16T07:45:49;100436.47;;;0.96;100.00
41202;BME280;26936;50.524;8.684;2023-02-16T07:48:16;100435.59;;;1.11;100.00
41202;BME280;26936;50.524;8.684;2023-02-16T07:50:41;100430.34;;;1.06;100.00
41202;BME280;26936;50.524;8.684;2023-02-16T07:53:06;100431.00;;;1.00;100.00
41202;BME280;26936;50.524;8.684;2023-02-16T07:55:32;100439.22;;;0.96;100.00
41202;BME280;26936;50.524;8.684;2023-02-16T07:57:58;100442.75;;;0.93;100.00
41202;BME280;26936;50.524;8.684;2023-02-16T08:00:24;100447.50;;;0.93;100.00
41202;BME280;26936;50.524;8.684;2023-02-16T08:02:50;100440.03;;;0.97;100.00
41202;BME280;26936;50.524;8.684;2023-02-16T08:05:16;100442.75;;;0.93;100.00
41202;BME280;26936;50.524;8.684;2023-02-16T08:07:41;100451.88;;;1.13;100.00
41202;BME280;26936;50.524;8.684;2023-02-16T08:10:07;100445.69;;;1.19;100.00
41202;BME280;26936;50.524;8.684;2023-02-16T08:12:32;100440.66;;;1.06;100.00
41202;BME280;26936;50.524;8.684;2023-02-16T08:14:57;100443.19;;;1.14;100.00
41202;BME280;26936;50.524;8.684;2023-02-16T08:17:23;100435.03;;;1.02;100.00
41202;BME280;26936;50.524;8.684;2023-02-16T08:19:49;100440.28;;;1.26;100.00
41202;BME280;26936;50.524;8.684;2023-02-16T08:22:16;100445.38;;;1.24;100.00
41202;BME280;26936;50.524;8.684;2023-02-16T08:24:42;100444.81;;;1.15;100.00
41202;BME280;26936;50.524;8.684;2023-02-16T08:27:07;100446.69;;;1.11;100.00
41202;BME280;26936;50.524;8.684;2023-02-16T08:29:33;100448.25;;;1.09;100.00
41202;BME280;26936;50.524;8.684;2023-02-16T08:31:58;100453.59;;;1.17;100.00
41202;BME280;26936;50.524;8.684;2023-02-16T08:34:24;100445.31;;;1.21;100.00
41202;BME280;26936;50.524;8.684;2023-02-16T08:36:52;100438.44;;;1.34;100.00
41202;BME280;26936;50.524;8.684;2023-02-16T08:39:21;100446.56;;;1.23;100.00
41202;BME280;26936;50.524;8.684;2023-02-16T08:41:48;100435.91;;;1.25;100.00
41202;BME280;26936;50.524;8.684;2023-02-16T08:44:14;100438.03;;;1.32;100.00
41202;BME280;26936;50.524;8.684;2023-02-16T08:46:41;100450.72;;;1.33;100.00
41202;BME280;26936;50.524;8.684;2023-02-16T08:49:08;100450.50;;;1.42;100.00
41202;BME280;26936;50.524;8.684;2023-02-16T08:51:35;100449.19;;;1.35;100.00
41202;BME280;26936;50.524;8.684;2023-02-16T08:54:03;100451.28;;;1.42;100.00
41202;BME280;26936;50.524;8.684;2023-02-16T08:56:29;100436.34;;;1.47;100.00
41202;BME280;26936;50.524;8.684;2023-02-16T08:58:56;100446.25;;;1.48;100.00
41202;BME280;26936;50.524;8.684;2023-02-16T09:01:21;100443.50;;;1.48;100.00
41202;BME280;26936;50.524;8.684;2023-02-16T09:03:48;100451.75;;;1.25;100.00
41202;BME280;26936;50.524;8.684;2023-02-16T09:06:15;100460.59;;;1.30;100.00
41202;BME280;26936;50.524;8.684;2023-02-16T09:08:42;100456.84;;;1.42;100.00
41202;BME280;26936;50.524;8.684;2023-02-16T09:11:13;100461.09;;;1.36;100.00
41202;BME280;26936;50.524;8.684;2023-02-16T09:13:39;100466.44;;;1.25;100.00
41202;BME280;26936;50.524;8.684;2023-02-16T09:16:08;100468.75;;;1.42;100.00
41202;BME280;26936;50.524;8.684;2023-02-16T09:18:34;100469.22;;;1.45;100.00
41202;BME280;26936;50.524;8.684;2023-02-16T09:21:08;100471.09;;;1.40;100.00
41202;BME280;26936;50.524;8.684;2023-02-16T09:23:36;100468.19;;;1.33;100.00
41202;BME280;26936;50.524;8.684;2023-02-16T09:26:01;100473.31;;;1.31;100.00
41202;BME280;26936;50.524;8.684;2023-02-16T09:28:27;100476.34;;;1.46;100.00
41202;BME280;26936;50.524;8.684;2023-02-16T09:30:53;100473.66;;;1.49;100.00
41202;BME280;26936;50.524;8.684;2023-02-16T09:33:19;100471.69;;;1.50;100.00
41202;BME280;26936;50.524;8.684;2023-02-16T09:35:45;100472.13;;;1.52;100.00
41202;BME280;26936;50.524;8.684;2023-02-16T09:38:11;100472.84;;;1.49;100.00
41202;BME280;26936;50.524;8.684;2023-02-16T09:40:36;100469.72;;;1.50;100.00
41202;BME280;26936;50.524;8.684;2023-02-16T09:46:10;100470.97;;;1.53;100.00
41202;BME280;26936;50.524;8.684;2023-02-16T09:48:39;100477.81;;;1.59;100.00
41202;BME280;26936;50.524;8.684;2023-02-16T09:51:16;100480.22;;;1.79;100.00
41202;BME280;26936;50.524;8.684;2023-02-16T09:53:45;100478.97;;;1.77;100.00
41202;BME280;26936;50.524;8.684;2023-02-16T09:56:28;100470.84;;;1.68;100.00
41202;BME280;26936;50.524;8.684;2023-02-16T09:59:02;100464.03;;;1.85;100.00
41202;BME280;26936;50.524;8.684;2023-02-16T10:01:49;100465.38;;;1.91;100.00
41202;BME280;26936;50.524;8.684;2023-02-16T10:04:37;100478.00;;;1.88;100.00
41202;BME280;26936;50.524;8.684;2023-02-16T10:07:29;100470.03;;;1.87;100.00
41202;BME280;26936;50.524;8.684;2023-02-16T10:09:59;100462.75;;;1.79;100.00
41202;BME280;26936;50.524;8.684;2023-02-16T10:12:31;100457.94;;;1.76;100.00
41202;BME280;26936;50.524;8.684;2023-02-16T10:15:17;100466.47;;;1.67;100.00
41202;BME280;26936;50.524;8.684;2023-02-16T10:17:51;100461.94;;;1.78;100.00
41202;BME280;26936;50.524;8.684;2023-02-16T10:20:24;100456.06;;;1.83;100.00
41202;BME280;26936;50.524;8.684;2023-02-16T10:22:59;100459.72;;;1.87;100.00
41202;BME280;26936;50.524;8.684;2023-02-16T10:28:39;100464.78;;;2.04;100.00
41202;BME280;26936;50.524;8.684;2023-02-16T10:33:59;100453.63;;;2.01;100.00
41202;BME280;26936;50.524;8.684;2023-02-16T10:42:26;100434.91;;;1.98;100.00
41202;BME280;26936;50.524;8.684;2023-02-16T10:44:59;100431.72;;;1.96;100.00
41202;BME280;26936;50.524;8.684;2023-02-16T10:47:36;100439.19;;;1.92;100.00
41202;BME280;26936;50.524;8.684;2023-02-16T10:50:03;100436.84;;;1.94;100.00
41202;BME280;26936;50.524;8.684;2023-02-16T10:52:33;100439.69;;;1.97;100.00
41202;BME280;26936;50.524;8.684;2023-02-16T10:55:01;100433.31;;;1.97;100.00
41202;BME280;26936;50.524;8.684;2023-02-16T10:57:29;100450.84;;;2.01;100.00
41202;BME280;26936;50.524;8.684;2023-02-16T10:59:57;100441.59;;;1.93;100.00
41202;BME280;26936;50.524;8.684;2023-02-16T11:02:44;100430.16;;;1.98;100.00
41202;BME280;26936;50.524;8.684;2023-02-16T11:05:30;100438.94;;;2.00;100.00
41202;BME280;26936;50.524;8.684;2023-02-16T11:07:57;100422.38;;;2.07;100.00
41202;BME280;26936;50.524;8.684;2023-02-16T11:13:04;100417.75;;;2.15;100.00
41202;BME280;26936;50.524;8.684;2023-02-16T11:15:30;100419.97;;;2.06;100.00
41202;BME280;26936;50.524;8.684;2023-02-16T11:18:00;100417.88;;;1.99;100.00
41202;BME280;26936;50.524;8.684;2023-02-16T11:23:27;100412.44;;;2.06;100.00
41202;BME280;26936;50.524;8.684;2023-02-16T11:25:59;100415.78;;;2.15;100.00
41202;BME280;26936;50.524;8.684;2023-02-16T11:28:36;100404.84;;;2.03;100.00
41202;BME280;26936;50.524;8.684;2023-02-16T11:33:33;100400.72;;;2.16;100.00
41202;BME280;26936;50.524;8.684;2023-02-16T11:36:00;100397.41;;;2.33;100.00
41202;BME280;26936;50.524;8.684;2023-02-16T11:38:34;100398.09;;;2.27;100.00
41202;BME280;26936;50.524;8.684;2023-02-16T11:41:02;100402.69;;;2.42;100.00
41202;BME280;26936;50.524;8.684;2023-02-16T11:43:33;100392.44;;;2.46;100.00
41202;BME280;26936;50.524;8.684;2023-02-16T11:46:16;100393.41;;;2.57;100.00
41202;BME280;26936;50.524;8.684;2023-02-16T11:48:43;100398.75;;;2.69;100.00
41202;BME280;26936;50.524;8.684;2023-02-16T11:51:09;100406.03;;;2.51;100.00
41202;BME280;26936;50.524;8.684;2023-02-16T11:53:37;100400.78;;;2.46;100.00
41202;BME280;26936;50.524;8.684;2023-02-16T11:58:38;100388.59;;;2.54;100.00
41202;BME280;26936;50.524;8.684;2023-02-16T12:01:12;100395.59;;;2.70;100.00
41202;BME280;26936;50.524;8.684;2023-02-16T12:03:58;100383.84;;;2.84;100.00
41202;BME280;26936;50.524;8.684;2023-02-16T12:15:20;100368.22;;;2.76;100.00
41202;BME280;26936;50.524;8.684;2023-02-16T12:23:48;100371.44;;;2.78;100.00
41202;BME280;26936;50.524;8.684;2023-02-16T12:26:41;100359.47;;;2.74;100.00
41202;BME280;26936;50.524;8.684;2023-02-16T12:35:06;100356.59;;;2.67;100.00
41202;BME280;26936;50.524;8.684;2023-02-16T12:38:03;100355.56;;;2.78;100.00
41202;BME280;26936;50.524;8.684;2023-02-16T12:40:49;100356.13;;;2.91;100.00
41202;BME280;26936;50.524;8.684;2023-02-16T12:43:28;100346.53;;;3.22;100.00
41202;BME280;26936;50.524;8.684;2023-02-16T12:46:01;100346.25;;;3.30;100.00
41202;BME280;26936;50.524;8.684;2023-02-16T12:48:38;100342.63;;;3.26;100.00
41202;BME280;26936;50.524;8.684;2023-02-16T12:51:09;100344.72;;;3.33;100.00
41202;BME280;26936;50.524;8.684;2023-02-16T12:53:45;100340.38;;;3.39;100.00
41202;BME280;26936;50.524;8.684;2023-02-16T12:56:18;100343.16;;;3.39;100.00
41202;BME280;26936;50.524;8.684;2023-02-16T12:58:46;100327.28;;;3.43;100.00
41202;BME280;26936;50.524;8.684;2023-02-16T13:01:19;100335.63;;;3.43;100.00
41202;BME280;26936;50.524;8.684;2023-02-16T13:03:54;100324.50;;;3.43;100.00
41202;BME280;26936;50.524;8.684;2023-02-16T13:09:04;100310.41;;;3.65;100.00
41202;BME280;26936;50.524;8.684;2023-02-16T13:11:41;100312.88;;;3.74;100.00
41202;BME280;26936;50.524;8.684;2023-02-16T13:14:19;100306.91;;;3.72;100.00
41202;BME280;26936;50.524;8.684;2023-02-16T13:16:50;100300.94;;;3.73;100.00
41202;BME280;26936;50.524;8.684;2023-02-16T13:19:18;100295.72;;;3.68;100.00
41202;BME280;26936;50.524;8.684;2023-02-16T13:24:25;100289.91;;;3.87;100.00
41202;BME280;26936;50.524;8.684;2023-02-16T13:33:13;100277.03;;;4.27;100.00
41202;BME280;26936;50.524;8.684;2023-02-16T13:36:14;100281.41;;;4.28;100.00
41202;BME280;26936;50.524;8.684;2023-02-16T13:39:04;100273.44;;;4.26;100.00
41202;BME280;26936;50.524;8.684;2023-02-16T13:44:23;100269.50;;;4.34;100.00
41202;BME280;26936;50.524;8.684;2023-02-16T13:46:51;100268.75;;;4.44;100.00
41202;BME280;26936;50.524;8.684;2023-02-16T13:49:37;100264.78;;;4.42;100.00
41202;BME280;26936;50.524;8.684;2023-02-16T13:52:08;100266.31;;;4.36;100.00
41202;BME280;26936;50.524;8.684;2023-02-16T13:54:37;100256.34;;;4.31;100.00
41202;BME280;26936;50.524;8.684;2023-02-16T13:57:04;100250.41;;;4.36;100.00
41202;BME280;26936;50.524;8.684;2023-02-16T14:02:00;100256.78;;;4.37;100.00
41202;BME280;26936;50.524;8.684;2023-02-16T14:19:38;100230.19;;;4.60;100.00
41202;BME280;26936;50.524;8.684;2023-02-16T14:22:10;100231.03;;;4.75;100.00
41202;BME280;26936;50.524;8.684;2023-02-16T14:24:37;100229.44;;;4.74;100.00
41202;BME280;26936;50.524;8.684;2023-02-16T14:27:06;100233.38;;;4.62;100.00
41202;BME280;26936;50.524;8.684;2023-02-16T14:29:55;100237.06;;;4.84;100.00
41202;BME280;26936;50.524;8.684;2023-02-16T14:32:42;100240.25;;;4.82;100.00
41202;BME280;26936;50.524;8.684;2023-02-16T14:35:18;100240.56;;;4.67;100.00
41202;BME280;26936;50.524;8.684;2023-02-16T14:40:22;100225.91;;;4.94;100.00
41202;BME280;26936;50.524;8.684;2023-02-16T14:46:15;100232.66;;;4.86;100.00
41202;BME280;26936;50.524;8.684;2023-02-16T14:52:13;100217.16;;;4.92;100.00
41202;BME280;26936;50.524;8.684;2023-02-16T15:01:10;100234.28;;;4.94;100.00